WEATHER DATA

TODAY
Time Temp. Dewp. Hum. Bar. 1h Prec. 24h Prec.
00:06 12.7 10.8 88 1008.7 0.0000 0.0000
00:16 12.5 10.7 89 1008.7 0.0000 0.0000
00:26 12.3 10.5 89 1008.8 0.0000 0.0000
00:36 12.2 10.4 89 1008.9 0.0000 0.0000
00:46 11.9 10.1 89 1009 0.0000 0.0000
00:57 11.6 9.9 89 1009 0.0000 0.0000
01:07 11.3 9.6 89 1009 0.0000 0.0000
01:17 11 9.3 89 1009 0.0000 0.0000
01:26 10.7 9 89 1009.1 0.0000 0.0000
01:37 10.5 8.8 89 1009 0.0000 0.0000
01:47 10.2 8.5 89 1009.2 0.0000 0.0000
01:57 9.9 8.2 89 1009.3 0.0000 0.0000
02:07 9.7 8 89 1009.3 0.0000 0.0000
02:18 9.4 7.7 89 1009.4 0.0000 0.0000
02:27 9.2 7.5 89 1009.4 0.0000 0.0000
02:37 9 7.4 90 1009.6 0.0000 0.0000
02:48 8.8 7.3 90 1009.7 0.0000 0.0000
02:58 8.6 7.1 90 1009.7 0.0000 0.0000
03:08 8.4 6.9 90 1009.7 0.0000 0.0000
03:18 8.2 6.7 90 1009.8 0.0000 0.0000
03:28 8 6.5 90 1009.9 0.0000 0.0000
03:38 7.9 6.5 91 1010 0.0000 0.0000
03:48 7.7 6.3 91 1010 0.0000 0.0000
03:59 7.5 6.1 91 1010.1 0.0000 0.0000
04:09 7.4 6 91 1010.2 0.0000 0.0000
04:19 7.3 6.1 92 1010.3 0.0000 0.0000
04:29 7.1 5.9 92 1010.4 0.0000 0.0000
04:39 7 5.8 92 1010.5 0.0000 0.0000
04:49 6.9 5.7 92 1010.5 0.0000 0.0000
04:59 6.8 5.6 92 1010.5 0.0000 0.0000
05:09 6.7 5.6 93 1010.6 0.0000 0.0000
05:20 6.6 5.6 93 1010.8 0.0000 0.0000
05:30 6.7 5.8 94 1010.8 0.0000 0.0000
05:39 6.8 5.9 94 1010.8 0.0000 0.0000
05:50 7 6.1 94 1010.9 0.0000 0.0000
06:00 7.1 6.2 94 1011 0.0000 0.0000
06:10 7.1 6.2 94 1011 0.0000 0.0000
06:20 7.3 6.6 95 1011.2 0.0000 0.0000
06:31 7.6 7 96 1011.3 0.0000 0.0000
06:41 8 7.4 96 1011.4 0.0000 0.0000
06:50 8.3 7.7 96 1011.5 0.0000 0.0000
07:01 8.4 7.6 95 1011.6 0.0000 0.0000
07:11 8.5 7.6 94 1011.6 0.0000 0.0000
07:21 8.6 7.8 95 1011.7 0.0000 0.0000
07:31 8.9 8.1 95 1011.8 0.0000 0.0000
07:42 9.4 8.8 96 1011.8 0.0000 0.0000
07:51 10 9.2 95 1011.8 0.0000 0.0000
08:01 10.7 9.5 92 1011.9 0.0000 0.0000
08:11 11.4 9.5 88 1012 0.0000 0.0000
08:22 12.1 9.5 84 1012 0.0000 0.0000
08:32 12.6 9.6 82 1012 0.0000 0.0000
08:42 13.1 9.2 77 1011.9 0.0000 0.0000
08:52 13.6 9.1 74 1012 0.0000 0.0000
09:02 13.9 9.1 73 1012.1 0.0000 0.0000
09:12 14.3 9.1 71 1012.1 0.0000 0.0000
09:22 14.7 9.3 70 1012.1 0.0000 0.0000
09:33 14.8 9.4 70 1012.1 0.0000 0.0000
09:43 15.1 9.9 71 1012 0.0000 0.0000
09:52 15.4 9.5 68 1012 0.0000 0.0000
10:03 15.5 8.7 64 1012 0.0000 0.0000
10:13 15.7 8.7 63 1012.1 0.0000 0.0000
10:23 15.9 8.4 61 1012.2 0.0000 0.0000
10:33 16 8.7 62 1012.1 0.0000 0.0000
10:44 16.1 8.6 61 1012.3 0.0000 0.0000
10:54 16.2 9.4 64 1012.2 0.0000 0.0000
11:03 16.4 9.3 63 1012.2 0.0000 0.0000
11:13 16.5 9.7 64 1012.3 0.0000 0.0000
11:24 16.6 9.5 63 1012.4 0.0000 0.0000
11:34 16.7 10.3 66 1012.3 0.0000 0.0000
11:44 16.7 9.6 63 1012.4 0.0000 0.0000
11:54 16.7 9.9 64 1012.4 0.0000 0.0000
12:04 16.8 10.4 66 1012.4 0.0000 0.0000
12:14 16.9 10.3 65 1012.4 0.0000 0.0000
12:24 16.9 10.1 64 1012.4 0.0000 0.0000
12:35 16.9 10.3 65 1012.4 0.0000 0.0000
12:45 16.9 10.7 67 1012.3 0.0000 0.0000
12:55 16.9 10.3 65 1012.3 0.0000 0.0000
13:05 16.9 10.3 65 1012.4 0.0000 0.0000
13:15 16.9 10.1 64 1012.5 0.0000 0.0000
13:25 16.9 9.8 63 1012.5 0.0000 0.0000
13:35 16.9 9.6 62 1012.5 0.0000 0.0000
13:46 17 9.7 62 1012.7 0.0000 0.0000
13:56 17 9.9 63 1012.6 0.0000 0.0000
14:05 17.1 10 63 1012.6 0.0000 0.0000
14:16 17 8.4 57 1012.6 0.0000 0.0000
14:26 17 9.2 60 1012.6 0.0000 0.0000
14:36 17 9.7 62 1012.6 0.0000 0.0000
14:46 16.9 9.3 61 1012.7 0.0000 0.0000
14:57 16.9 9.3 61 1012.6 0.0000 0.0000
15:06 16.8 10 64 1012.6 0.0000 0.0000
15:16 16.8 10 64 1012.7 0.0000 0.0000
15:26 16.7 9.6 63 1012.7 0.0000 0.0000
15:37 16.7 9.6 63 1012.7 0.0000 0.0000
15:47 16.6 9.5 63 1012.8 0.0000 0.0000
15:57 16.6 9.8 64 1012.7 0.0000 0.0000
16:07 16.6 9.8 64 1012.7 0.0000 0.0000
16:17 16.5 9.7 64 1012.7 0.0000 0.0000
16:27 16.5 9.9 65 1012.6 0.0000 0.0000
16:37 16.5 10.4 67 1012.6 0.0000 0.0000
16:48 16.5 9.9 65 1012.6 0.0000 0.0000
16:58 16.4 9.6 64 1012.5 0.0000 0.0000
17:07 16.4 8.9 61 1012.4 0.0000 0.0000
17:17 16.4 9.1 62 1012.4 0.0000 0.0000
17:28 16.3 9.3 63 1012.3 0.0000 0.0000
17:38 16.3 9.3 63 1012.2 0.0000 0.0000
17:48 16.3 9 62 1012.2 0.0000 0.0000
17:59 16.2 8.9 62 1012.2 0.0000 0.0000
18:09 16.2 8.9 62 1012.1 0.0000 0.0000
18:18 16.1 8.6 61 1012.1 0.0000 0.0000
18:28 16 8.7 62 1012.1 0.0000 0.0000
18:39 15.9 9.1 64 1012 0.0000 0.0000
18:49 15.8 9.2 65 1012.1 0.0000 0.0000
18:59 15.7 9.4 66 1012.1 0.0000 0.0000
19:09 15.8 9.5 66 1012.2 0.0000 0.0000
19:19 15.9 9.6 66 1012.3 0.0000 0.0000

DAY STATISTIC

2018-06-23
TEMPERATURE
AVERAGE
13.0
HIGH
17.1
14:05
LOW
6.6
05:20
PRESSURE
AVERAGE
1011.5
HIGH
1012.8
15:47
LOW
1008.7
00:06
DEWPOINT
AVERAGE
8.7
HIGH
10.8
00:06
LOW
5.6
04:59
HUMIDITY
AVERAGE
76
HIGH
96
06:31
LOW
57
14:16
PRECIPITATION
RAIN HOUR
0.0
RAIN DAY
0.0
TEMPERATURE (°C)
LOW
6.6
HIGH
17.1
AVERAGE
13.0
PRESSURE (hpa)
LOW
1008.7
HIGH
1012.8
AVERAGE
1011.5
DEVICE